Time;durP1;ratioP1;P1;durP2;ratioP2;P2;SDS_P1;SDS_P2;PMS_P1;PMS_P2;Temp;Humidity;BMP_temperature;BMP_pressure;BME280_temperature;BME280_humidity;BME280_pressure;Samples;Min_cycle;Max_cycle;Signal;HPM_P1;HPM_P2
2024/01/02 00:02:12;;;;;;;4.80;2.10;;;;;;;6.02;87.31;99568.20;130180;1272;115470;-69
2024/01/02 00:05:14;;;;;;;3.90;1.50;;;;;;;6.03;87.31;99564.98;130238;1259;114745;-71
2024/01/02 00:08:16;;;;;;;3.60;1.60;;;;;;;6.01;87.34;99565.42;129854;1254;114842;-71
2024/01/02 00:11:19;;;;;;;4.70;1.70;;;;;;;6.01;87.31;99564.34;130252;1254;115177;-72
2024/01/02 00:14:20;;;;;;;4.40;1.60;;;;;;;6.01;87.44;99567.70;130304;1273;114752;-71
2024/01/02 00:17:23;;;;;;;5.60;1.80;;;;;;;6.02;87.48;99568.73;130346;1255;116160;-71
2024/01/02 00:20:25;;;;;;;4.30;1.60;;;;;;;5.99;87.44;99566.52;129840;1259;127987;-72
2024/01/02 00:23:27;;;;;;;4.40;1.90;;;;;;;5.98;87.36;99570.48;130164;1269;114812;-72
2024/01/02 00:26:29;;;;;;;5.00;1.70;;;;;;;5.97;87.26;99571.73;130239;1254;114723;-72
2024/01/02 00:29:32;;;;;;;3.00;1.50;;;;;;;5.96;87.32;99573.58;130221;1259;114799;-72
2024/01/02 00:32:34;;;;;;;4.50;2.20;;;;;;;5.96;87.38;99570.55;130231;1258;115282;-71
2024/01/02 00:35:37;;;;;;;3.60;1.60;;;;;;;5.97;87.43;99572.98;130162;1256;114703;-70
2024/01/02 00:38:39;;;;;;;4.20;2.40;;;;;;;5.97;87.37;99578.12;130021;1254;114788;-71
2024/01/02 00:41:42;;;;;;;4.80;1.80;;;;;;;5.96;87.52;99578.70;129832;1264;127746;-72
2024/01/02 00:44:46;;;;;;;5.10;1.70;;;;;;;5.95;87.56;99580.16;130209;1257;114801;-73
2024/01/02 00:47:51;;;;;;;3.20;1.60;;;;;;;5.93;87.69;99583.42;130049;1258;116085;-71
2024/01/02 00:50:54;;;;;;;4.60;1.70;;;;;;;5.90;87.97;99582.83;130126;1277;114745;-71
2024/01/02 00:54:04;;;;;;;2.50;1.10;;;;;;;5.89;87.94;99589.79;129956;1277;114791;-71
2024/01/02 00:57:07;;;;;;;2.40;1.20;;;;;;;5.87;87.85;99591.84;130172;1259;114812;-71
2024/01/02 01:00:10;;;;;;;2.30;1.00;;;;;;;5.83;87.98;99600.84;130172;1254;114745;-70
2024/01/02 01:03:13;;;;;;;2.50;1.10;;;;;;;5.78;88.13;99598.76;130261;1259;114824;-69
2024/01/02 01:06:15;;;;;;;2.90;1.40;;;;;;;5.74;88.16;99605.45;130216;1259;114750;-70
2024/01/02 01:09:18;;;;;;;2.80;0.90;;;;;;;5.70;88.16;99606.19;130321;1259;114809;-71
2024/01/02 01:12:20;;;;;;;3.00;1.20;;;;;;;5.65;88.12;99598.60;130952;1252;114705;-69
2024/01/02 01:15:22;;;;;;;1.50;0.80;;;;;;;5.61;88.36;99603.50;130270;1277;114749;-68
2024/01/02 01:18:24;;;;;;;3.10;1.10;;;;;;;5.59;88.23;99604.30;130367;1254;115306;-71
2024/01/02 01:21:26;;;;;;;2.50;1.20;;;;;;;5.57;88.41;99601.38;130336;1259;114648;-70
2024/01/02 01:24:28;;;;;;;2.80;0.90;;;;;;;5.55;88.41;99597.00;130361;1267;114721;-71
2024/01/02 01:27:30;;;;;;;3.50;0.80;;;;;;;5.53;88.30;99595.71;130274;1259;114710;-71
2024/01/02 01:30:32;;;;;;;2.90;1.00;;;;;;;5.50;88.48;99596.52;129888;1274;114806;-67
2024/01/02 01:33:37;;;;;;;2.00;0.70;;;;;;;5.48;88.56;99599.23;130120;1276;114720;-68
2024/01/02 01:36:39;;;;;;;5.00;1.40;;;;;;;5.46;88.46;99593.46;130415;1253;128832;-69
2024/01/02 01:39:41;;;;;;;3.40;1.50;;;;;;;5.45;88.52;99591.05;130263;1254;115170;-71
2024/01/02 01:42:47;;;;;;;4.70;1.20;;;;;;;5.42;88.42;99592.75;130293;1260;115185;-69
2024/01/02 01:45:50;;;;;;;3.10;0.90;;;;;;;5.41;88.42;99593.17;130357;1254;114846;-71
2024/01/02 01:48:52;;;;;;;4.20;0.80;;;;;;;5.40;88.76;99591.59;130371;1267;114774;-68
2024/01/02 01:51:55;;;;;;;3.50;0.90;;;;;;;5.40;88.71;99591.92;129824;1254;115212;-67
2024/01/02 01:54:59;;;;;;;3.20;1.00;;;;;;;5.39;88.77;99588.28;130369;1260;114715;-69
2024/01/02 01:58:01;;;;;;;6.80;1.50;;;;;;;5.37;88.99;99585.55;130325;1276;129162;-66
2024/01/02 02:01:03;;;;;;;2.40;1.00;;;;;;;5.34;88.81;99584.40;130406;1262;114775;-68
2024/01/02 02:04:06;;;;;;;5.30;1.00;;;;;;;5.33;88.90;99589.40;130116;1260;114782;-69
2024/01/02 02:07:08;;;;;;;2.80;1.00;;;;;;;5.30;89.11;99587.71;130499;1276;114951;-67
2024/01/02 02:10:10;;;;;;;3.70;0.70;;;;;;;5.30;89.27;99590.77;130026;1260;114859;-68
2024/01/02 02:13:12;;;;;;;4.20;1.70;;;;;;;5.29;89.24;99585.67;130247;1259;114790;-66
2024/01/02 02:16:15;;;;;;;4.70;1.50;;;;;;;5.27;89.19;99584.84;130412;1259;115385;-72
2024/01/02 02:19:17;;;;;;;3.60;1.60;;;;;;;5.27;89.39;99586.46;130333;1267;128975;-68
2024/01/02 02:22:42;;;;;;;3.60;1.20;;;;;;;5.22;89.25;99591.75;130317;1254;114835;-70
2024/01/02 02:25:44;;;;;;;2.60;1.00;;;;;;;5.18;89.22;99593.33;130029;1254;114915;-66
2024/01/02 02:28:46;;;;;;;3.00;1.30;;;;;;;5.15;89.26;99595.21;130182;1259;114782;-70
2024/01/02 02:31:48;;;;;;;6.50;1.90;;;;;;;5.09;88.88;99589.94;130359;1258;114723;-69
2024/01/02 02:34:50;;;;;;;3.90;1.30;;;;;;;5.03;88.86;99588.95;130041;1264;114927;-69
2024/01/02 02:37:54;;;;;;;3.10;1.30;;;;;;;4.97;88.80;99585.14;130145;1273;114712;-68
2024/01/02 02:40:56;;;;;;;3.80;1.70;;;;;;;4.90;88.76;99582.56;129867;1269;114809;-68
2024/01/02 02:43:58;;;;;;;3.90;1.60;;;;;;;4.81;88.53;99581.47;130182;1275;115307;-68
2024/01/02 02:47:00;;;;;;;4.30;1.60;;;;;;;4.72;88.37;99581.27;130291;1253;114755;-70
2024/01/02 02:50:05;;;;;;;3.60;1.40;;;;;;;4.63;88.32;99576.14;130410;1257;114718;-68
2024/01/02 02:53:07;;;;;;;4.10;1.30;;;;;;;4.53;88.22;99576.11;130459;1259;114724;-69
2024/01/02 02:56:16;;;;;;;3.30;1.20;;;;;;;4.42;88.05;99579.18;130111;1275;116717;-69
2024/01/02 02:59:18;;;;;;;3.10;1.40;;;;;;;4.29;87.93;99582.80;130306;1276;115208;-68
2024/01/02 03:02:20;;;;;;;3.10;1.40;;;;;;;4.19;87.81;99581.91;130344;1259;115506;-67
2024/01/02 03:05:22;;;;;;;3.20;1.40;;;;;;;4.07;87.78;99578.63;130311;1259;114726;-66
2024/01/02 03:08:24;;;;;;;7.40;3.10;;;;;;;3.97;88.00;99575.08;130270;1260;114721;-67
2024/01/02 03:11:28;;;;;;;6.30;2.80;;;;;;;3.91;88.43;99576.00;130351;1257;114711;-68
2024/01/02 03:14:30;;;;;;;8.20;3.50;;;;;;;3.87;88.64;99572.95;130188;1261;114654;-66
2024/01/02 03:17:32;;;;;;;7.70;4.10;;;;;;;3.85;88.70;99574.05;130225;1270;114654;-66
2024/01/02 03:20:34;;;;;;;9.80;3.50;;;;;;;3.82;88.99;99573.80;130416;1254;114700;-66
2024/01/02 03:23:37;;;;;;;7.80;3.30;;;;;;;3.78;89.04;99575.70;130061;1269;114688;-66
2024/01/02 03:26:40;;;;;;;8.40;4.20;;;;;;;3.74;88.91;99577.27;130344;1267;114733;-66
2024/01/02 03:29:42;;;;;;;6.20;2.90;;;;;;;3.69;89.05;99575.84;130298;1259;114703;-66
2024/01/02 03:32:44;;;;;;;5.40;3.10;;;;;;;3.67;89.09;99573.25;130325;1258;114687;-66
2024/01/02 03:35:47;;;;;;;6.80;2.70;;;;;;;3.65;89.16;99576.30;129952;1265;127309;-66
2024/01/02 03:38:51;;;;;;;8.90;2.80;;;;;;;3.64;89.27;99577.73;130049;1262;114744;-65
2024/01/02 03:41:53;;;;;;;5.00;2.50;;;;;;;3.64;89.63;99573.86;129974;1257;114921;-66
2024/01/02 03:45:00;;;;;;;6.20;2.40;;;;;;;3.66;89.55;99567.96;130243;1260;114702;-66
2024/01/02 03:48:02;;;;;;;5.40;2.70;;;;;;;3.67;89.82;99570.92;130096;1257;114803;-66
2024/01/02 03:51:04;;;;;;;4.40;2.00;;;;;;;3.68;89.80;99573.04;130278;1256;115122;-67
2024/01/02 03:54:07;;;;;;;5.80;2.60;;;;;;;3.70;89.89;99566.64;130237;1272;126747;-66
2024/01/02 03:57:09;;;;;;;5.30;2.90;;;;;;;3.72;90.20;99567.06;130298;1267;114785;-68
2024/01/02 04:00:11;;;;;;;6.00;2.90;;;;;;;3.74;90.44;99567.35;130103;1260;114755;-67
2024/01/02 04:03:13;;;;;;;8.30;3.60;;;;;;;3.76;90.35;99560.23;130112;1264;115457;-70
2024/01/02 04:06:15;;;;;;;6.10;3.30;;;;;;;3.77;90.63;99560.55;130207;1260;115163;-72
2024/01/02 04:09:17;;;;;;;6.50;3.40;;;;;;;3.78;90.56;99556.64;130074;1270;114713;-68
2024/01/02 04:12:19;;;;;;;7.60;3.10;;;;;;;3.77;90.46;99556.14;130068;1254;114782;-66
2024/01/02 04:15:21;;;;;;;6.20;2.30;;;;;;;3.74;90.18;99553.77;130199;1253;114724;-68
2024/01/02 04:18:23;;;;;;;5.10;2.60;;;;;;;3.68;89.79;99543.20;130320;1254;114708;-69
2024/01/02 04:21:25;;;;;;;4.10;2.20;;;;;;;3.59;89.39;99542.44;129964;1276;114792;-65
2024/01/02 04:24:27;;;;;;;4.70;2.40;;;;;;;3.48;89.32;99542.96;130209;1254;114859;-65
2024/01/02 04:27:30;;;;;;;3.70;1.60;;;;;;;3.37;89.07;99542.96;130379;1267;114709;-65
2024/01/02 04:30:34;;;;;;;4.10;2.20;;;;;;;3.25;88.94;99540.34;130066;1260;114803;-67
2024/01/02 04:33:36;;;;;;;4.30;1.30;;;;;;;3.14;88.79;99540.16;130313;1258;114785;-69
2024/01/02 04:36:41;;;;;;;4.00;1.60;;;;;;;2.99;88.64;99532.49;130242;1268;115153;-67
2024/01/02 04:39:43;;;;;;;4.10;2.30;;;;;;;2.87;88.59;99529.70;129653;1269;114818;-67
2024/01/02 04:42:49;;;;;;;5.20;3.00;;;;;;;2.75;88.46;99527.23;130347;1260;114744;-66
2024/01/02 04:45:54;;;;;;;2.80;1.40;;;;;;;2.61;88.54;99518.83;129954;1259;114882;-67
2024/01/02 04:48:56;;;;;;;3.80;1.90;;;;;;;2.49;88.37;99519.35;130210;1270;115173;-66
2024/01/02 04:51:58;;;;;;;4.80;1.90;;;;;;;2.38;88.25;99517.36;130193;1268;114715;-67
2024/01/02 04:55:00;;;;;;;6.40;2.10;;;;;;;2.28;88.26;99513.45;130252;1259;115259;-66
2024/01/02 04:58:04;;;;;;;7.10;1.90;;;;;;;2.18;88.25;99513.88;129950;1270;114743;-65
2024/01/02 05:01:06;;;;;;;6.50;2.30;;;;;;;2.08;88.49;99504.64;130252;1276;114733;-66
2024/01/02 05:04:08;;;;;;;4.00;1.90;;;;;;;2.00;88.30;99505.77;130297;1267;114794;-67
2024/01/02 05:07:10;;;;;;;4.00;2.30;;;;;;;1.92;88.42;99506.50;130381;1258;115035;-67
2024/01/02 05:10:13;;;;;;;4.80;2.20;;;;;;;1.81;88.15;99507.30;130308;1264;114777;-66
2024/01/02 05:13:14;;;;;;;5.10;2.40;;;;;;;1.72;88.19;99504.05;130479;1260;114711;-69
2024/01/02 05:16:16;;;;;;;5.40;2.20;;;;;;;1.64;88.17;99504.23;130276;1267;114779;-67
2024/01/02 05:19:18;;;;;;;4.10;2.10;;;;;;;1.58;88.38;99507.75;130160;1270;115084;-70
2024/01/02 05:22:20;;;;;;;5.50;2.70;;;;;;;1.51;88.40;99503.16;130309;1276;114836;-70
2024/01/02 05:25:22;;;;;;;6.70;3.00;;;;;;;1.44;88.32;99504.55;130336;1267;115071;-70
2024/01/02 05:28:24;;;;;;;7.70;3.50;;;;;;;1.38;88.09;99507.19;129946;1261;114766;-71
2024/01/02 05:31:25;;;;;;;5.80;3.10;;;;;;;1.31;88.43;99503.83;130046;1259;115269;-68
2024/01/02 05:34:29;;;;;;;5.80;2.90;;;;;;;1.25;88.63;99502.04;130217;1275;114727;-68
2024/01/02 05:37:31;;;;;;;5.10;2.50;;;;;;;1.19;88.58;99502.36;129839;1263;127892;-66
2024/01/02 05:40:33;;;;;;;6.10;3.70;;;;;;;1.14;88.74;99497.39;130175;1260;114790;-68
2024/01/02 05:43:35;;;;;;;5.20;2.50;;;;;;;1.09;88.64;99500.48;130208;1259;114757;-68
2024/01/02 05:46:37;;;;;;;6.80;3.20;;;;;;;1.04;88.85;99505.00;129942;1263;114809;-68
2024/01/02 05:49:39;;;;;;;5.40;3.00;;;;;;;0.99;88.82;99504.77;130189;1254;114809;-69
2024/01/02 05:52:43;;;;;;;8.00;3.60;;;;;;;0.94;89.00;99501.73;130284;1275;114652;-69
2024/01/02 05:55:47;;;;;;;8.70;3.40;;;;;;;0.89;88.89;99502.70;129867;1273;114977;-68
2024/01/02 05:58:52;;;;;;;4.80;3.30;;;;;;;0.85;89.13;99502.44;129909;1271;128134;-68
2024/01/02 06:01:54;;;;;;;5.90;3.60;;;;;;;0.81;89.34;99505.86;130156;1276;115132;-67
2024/01/02 06:04:56;;;;;;;5.50;3.90;;;;;;;0.79;89.19;99503.27;130441;1254;114712;-67
2024/01/02 06:07:57;;;;;;;7.60;3.80;;;;;;;0.76;89.05;99499.83;130287;1267;114716;-66
2024/01/02 06:10:59;;;;;;;6.20;4.00;;;;;;;0.74;89.39;99500.40;130312;1260;114706;-71
2024/01/02 06:14:01;;;;;;;10.50;5.20;;;;;;;0.72;89.37;99500.81;130259;1262;114814;-67
2024/01/02 06:17:03;;;;;;;9.70;5.10;;;;;;;0.70;89.81;99498.01;129927;1271;114798;-65
2024/01/02 06:20:06;;;;;;;6.80;4.20;;;;;;;0.72;90.09;99496.60;130269;1260;115145;-68
2024/01/02 06:23:08;;;;;;;8.50;4.20;;;;;;;0.73;90.68;99494.81;130365;1267;114772;-66
2024/01/02 06:26:10;;;;;;;6.20;3.20;;;;;;;0.74;90.53;99491.94;130284;1258;114723;-65
2024/01/02 06:29:12;;;;;;;8.30;5.10;;;;;;;0.77;90.32;99495.60;129926;1276;114817;-67
2024/01/02 06:32:15;;;;;;;8.00;4.10;;;;;;;0.79;90.71;99496.06;130233;1258;114751;-65
2024/01/02 06:35:17;;;;;;;5.70;3.60;;;;;;;0.82;90.94;99494.96;130350;1268;114735;-68
2024/01/02 06:38:19;;;;;;;7.20;4.20;;;;;;;0.84;91.06;99492.61;129870;1264;115337;-65
2024/01/02 06:41:21;;;;;;;9.30;4.00;;;;;;;0.87;91.07;99493.96;130126;1259;114785;-66
2024/01/02 06:44:22;;;;;;;8.70;4.20;;;;;;;0.88;90.96;99490.06;130108;1259;115476;-65
2024/01/02 06:47:24;;;;;;;9.00;3.40;;;;;;;0.90;91.04;99485.44;129913;1276;115132;-66
2024/01/02 06:50:26;;;;;;;7.40;3.40;;;;;;;0.92;91.37;99480.13;130154;1268;115148;-69
2024/01/02 06:53:28;;;;;;;7.80;4.10;;;;;;;0.95;91.27;99474.45;130234;1273;114732;-70
2024/01/02 06:56:30;;;;;;;8.90;3.50;;;;;;;0.97;91.40;99468.24;130261;1254;115442;-68
2024/01/02 06:59:33;;;;;;;8.90;4.30;;;;;;;0.98;91.56;99466.80;130196;1260;114737;-66
2024/01/02 07:02:35;;;;;;;8.70;3.50;;;;;;;0.99;91.30;99465.02;130214;1257;114733;-66
2024/01/02 07:05:36;;;;;;;7.60;4.00;;;;;;;1.01;91.61;99460.39;130299;1258;114712;-66
2024/01/02 07:08:38;;;;;;;8.20;3.60;;;;;;;1.02;91.59;99456.86;129868;1254;114862;-67
2024/01/02 07:11:40;;;;;;;10.00;5.50;;;;;;;1.04;91.75;99456.13;130300;1258;114788;-67
2024/01/02 07:14:43;;;;;;;10.60;5.10;;;;;;;1.06;91.83;99450.09;130450;1270;114797;-67
2024/01/02 07:17:45;;;;;;;9.00;4.40;;;;;;;1.09;91.51;99447.73;130281;1267;114641;-66
2024/01/02 07:20:47;;;;;;;10.20;4.80;;;;;;;1.10;91.35;99444.36;130294;1270;114756;-68
2024/01/02 07:23:49;;;;;;;8.10;4.30;;;;;;;1.12;91.52;99441.51;130255;1254;115571;-69
2024/01/02 07:26:51;;;;;;;10.40;4.80;;;;;;;1.14;91.48;99437.58;129888;1261;128032;-65
2024/01/02 07:29:53;;;;;;;11.00;5.80;;;;;;;1.17;91.83;99428.70;130211;1263;114718;-67
2024/01/02 07:32:55;;;;;;;11.80;5.20;;;;;;;1.23;92.09;99433.15;130302;1276;114735;-66
2024/01/02 07:35:57;;;;;;;11.50;4.50;;;;;;;1.28;92.20;99429.48;130240;1276;114698;-66
2024/01/02 07:38:59;;;;;;;9.40;5.40;;;;;;;1.35;91.97;99428.96;130204;1254;114712;-67
2024/01/02 07:42:01;;;;;;;9.90;5.60;;;;;;;1.41;92.18;99421.94;130246;1257;114698;-68
2024/01/02 07:45:04;;;;;;;12.00;5.30;;;;;;;1.49;92.29;99423.66;129880;1254;114688;-68
2024/01/02 07:48:07;;;;;;;13.00;6.20;;;;;;;1.57;92.58;99420.82;130223;1257;114709;-69
2024/01/02 07:51:08;;;;;;;9.90;6.30;;;;;;;1.65;92.46;99413.73;130231;1257;114715;-66
2024/01/02 07:54:10;;;;;;;13.90;5.20;;;;;;;1.74;92.78;99410.67;130239;1254;114789;-67
2024/01/02 07:57:12;;;;;;;12.60;5.60;;;;;;;1.82;92.61;99409.07;129856;1255;114855;-66
2024/01/02 08:00:15;;;;;;;9.50;5.10;;;;;;;1.91;92.99;99407.39;130196;1259;115277;-69
2024/01/02 08:03:17;;;;;;;7.20;4.60;;;;;;;2.00;92.78;99410.30;130226;1260;115117;-65
2024/01/02 08:06:19;;;;;;;10.90;5.30;;;;;;;2.08;93.04;99408.66;130189;1270;114799;-65
2024/01/02 08:09:21;;;;;;;8.20;4.60;;;;;;;2.18;92.93;99405.73;130138;1260;128334;-69
2024/01/02 08:12:23;;;;;;;13.20;4.80;;;;;;;2.26;93.12;99400.90;130249;1270;114725;-68
2024/01/02 08:15:25;;;;;;;11.60;5.20;;;;;;;2.35;93.31;99396.07;130315;1254;114844;-70
2024/01/02 08:18:28;;;;;;;10.80;6.40;;;;;;;2.44;93.34;99392.27;129953;1273;114725;-68
2024/01/02 08:21:30;;;;;;;14.40;5.90;;;;;;;2.55;93.43;99391.22;130034;1264;114807;-67
2024/01/02 08:24:32;;;;;;;13.50;5.80;;;;;;;2.67;93.40;99392.80;130098;1263;114712;-66
2024/01/02 08:27:35;;;;;;;13.70;5.00;;;;;;;2.79;93.43;99391.70;130315;1258;115366;-66
2024/01/02 08:30:37;;;;;;;9.60;4.90;;;;;;;2.89;93.47;99390.85;130087;1254;127872;-65
2024/01/02 08:33:39;;;;;;;11.60;4.80;;;;;;;3.00;93.57;99385.90;130148;1254;114731;-65
2024/01/02 08:36:41;;;;;;;10.80;5.00;;;;;;;3.11;93.58;99380.75;130264;1257;114712;-65
2024/01/02 08:39:43;;;;;;;11.70;4.60;;;;;;;3.22;93.64;99376.16;130328;1254;114702;-65
2024/01/02 08:42:47;;;;;;;8.20;4.10;;;;;;;3.33;93.70;99372.95;130237;1254;115340;-65
2024/01/02 08:45:49;;;;;;;11.90;3.90;;;;;;;3.43;93.59;99373.67;129858;1273;114690;-66
2024/01/02 08:48:51;;;;;;;10.60;4.60;;;;;;;3.51;93.39;99367.92;130384;1257;114641;-66
2024/01/02 08:51:53;;;;;;;10.00;5.70;;;;;;;3.60;93.49;99363.01;130269;1258;114932;-65
2024/01/02 08:54:55;;;;;;;10.60;4.70;;;;;;;3.71;93.45;99361.91;130202;1257;115379;-65
2024/01/02 08:57:57;;;;;;;10.50;4.70;;;;;;;3.79;93.28;99360.19;130340;1259;114728;-65
2024/01/02 09:00:59;;;;;;;14.90;4.80;;;;;;;3.88;92.98;99361.49;130408;1260;115413;-65
2024/01/02 09:04:01;;;;;;;28.10;13.60;;;;;;;3.96;92.98;99354.99;130175;1261;115081;-69
2024/01/02 09:07:02;;;;;;;19.90;10.40;;;;;;;4.04;92.88;99350.96;130224;1275;114789;-67
2024/01/02 09:10:05;;;;;;;35.80;20.20;;;;;;;4.13;92.90;99344.63;130209;1260;114786;-69
2024/01/02 09:13:07;;;;;;;21.60;9.20;;;;;;;4.22;93.11;99344.62;130189;1254;126649;-69
2024/01/02 09:16:09;;;;;;;16.00;8.90;;;;;;;4.28;92.72;99338.05;130260;1260;115164;-69
2024/01/02 09:19:12;;;;;;;16.20;8.30;;;;;;;4.32;92.41;99330.27;130230;1254;114767;-67
2024/01/02 09:22:14;;;;;;;16.60;8.70;;;;;;;4.37;92.56;99324.42;129853;1254;115397;-68
2024/01/02 09:25:16;;;;;;;17.20;8.40;;;;;;;4.44;92.63;99319.05;130243;1257;114725;-68
2024/01/02 09:28:20;;;;;;;15.70;7.10;;;;;;;4.52;92.75;99317.48;130342;1259;114728;-66
2024/01/02 09:31:26;;;;;;;17.20;8.20;;;;;;;4.59;92.29;99310.11;130237;1276;114719;-69
2024/01/02 09:34:28;;;;;;;15.90;6.50;;;;;;;4.67;92.54;99302.88;129970;1264;114905;-67
2024/01/02 09:37:30;;;;;;;19.60;6.80;;;;;;;4.76;92.49;99296.51;130229;1257;114715;-68
2024/01/02 09:40:58;;;;;;;19.70;8.80;;;;;;;4.86;92.32;99290.61;130278;1276;114725;-69
2024/01/02 09:44:16;;;;;;;8.80;4.50;;;;;;;4.94;92.25;99287.27;130292;1276;115090;-70
2024/01/02 09:47:21;;;;;;;17.70;7.90;;;;;;;5.02;91.99;99282.84;130047;1261;114745;-68
2024/01/02 09:50:42;;;;;;;13.80;5.90;;;;;;;5.10;92.08;99277.55;130244;1258;128969;-66
2024/01/02 09:54:00;;;;;;;13.90;5.80;;;;;;;5.19;92.13;99269.92;130295;1254;114737;-66
2024/01/02 09:57:23;;;;;;;19.80;9.30;;;;;;;5.26;91.84;99263.74;130203;1259;114844;-65
2024/01/02 10:00:53;;;;;;;15.90;6.50;;;;;;;5.36;91.69;99247.58;129990;1254;114761;-66
2024/01/02 10:04:21;;;;;;;24.40;11.60;;;;;;;5.46;91.48;99237.36;129915;1254;114819;-66
2024/01/02 10:07:55;;;;;;;30.90;12.40;;;;;;;5.58;91.49;99224.08;129745;1254;128058;-65
2024/01/02 10:11:06;;;;;;;24.00;11.00;;;;;;;5.70;91.09;99221.20;129994;1254;115448;-68
2024/01/02 10:14:31;;;;;;;17.90;7.90;;;;;;;5.83;91.27;99221.30;129916;1255;114882;-69
2024/01/02 10:18:01;;;;;;;5.60;3.00;;;;;;;5.96;90.80;99213.10;129876;1263;114829;-66
2024/01/02 10:21:15;;;;;;;15.40;6.60;;;;;;;6.06;90.47;99209.62;129952;1254;114661;-66
2024/01/02 10:24:55;;;;;;;8.80;5.80;;;;;;;6.14;90.22;99198.73;129869;1262;128710;-66
2024/01/02 10:28:14;;;;;;;15.10;5.70;;;;;;;6.23;89.83;99189.45;130174;1258;114712;-66
2024/01/02 10:31:31;;;;;;;21.00;10.80;;;;;;;6.30;89.56;99182.39;130017;1257;114961;-66
2024/01/02 10:34:48;;;;;;;12.10;5.70;;;;;;;6.36;89.57;99174.09;129963;1262;114876;-66
2024/01/02 10:38:07;;;;;;;6.90;2.90;;;;;;;6.42;89.15;99168.84;130180;1254;114757;-66
2024/01/02 10:41:09;;;;;;;;;;;;;;;6.45;88.70;99158.95;130181;1259;129161;-66
2024/01/02 10:44:14;;;;;;;19.20;11.50;;;;;;;6.47;88.58;99151.75;130177;1259;114782;-66
2024/01/02 10:47:36;;;;;;;5.50;2.50;;;;;;;6.52;88.78;99147.92;129813;1264;114914;-66
2024/01/02 10:51:06;;;;;;;19.60;8.80;;;;;;;6.57;88.35;99143.95;129908;1261;114837;-65
2024/01/02 10:54:18;;;;;;;10.20;2.80;;;;;;;6.62;88.13;99136.21;129784;1257;114720;-66
2024/01/02 10:57:32;;;;;;;;;;;;;;;6.67;88.05;99130.82;129755;1259;127514;-66
2024/01/02 11:00:56;;;;;;;10.70;3.80;;;;;;;6.69;87.84;99129.84;130187;1260;114801;-65
2024/01/02 11:04:07;;;;;;;4.60;2.50;;;;;;;6.70;87.47;99121.80;129766;1259;114905;-66
2024/01/02 11:07:09;;;;;;;5.60;2.30;;;;;;;6.72;87.36;99115.70;129934;1258;114789;-66
2024/01/02 11:10:19;;;;;;;8.80;4.10;;;;;;;6.74;87.15;99105.61;129949;1261;273919;-66
2024/01/02 11:13:21;;;;;;;9.30;3.20;;;;;;;6.75;86.98;99095.48;129916;1278;127845;-66
2024/01/02 11:16:25;;;;;;;8.70;3.70;;;;;;;6.75;87.10;99093.86;129848;1260;115457;-67
2024/01/02 11:19:31;;;;;;;10.90;3.80;;;;;;;6.76;86.73;99091.50;130307;1256;115168;-67
2024/01/02 11:22:37;;;;;;;8.80;3.50;;;;;;;6.78;86.85;99088.72;130074;1257;115339;-67
2024/01/02 11:25:50;;;;;;;;;;;;;;;6.78;86.59;99085.16;130294;1258;114700;-67
2024/01/02 11:28:52;;;;;;;8.40;3.00;;;;;;;6.78;86.42;99079.13;130200;1258;128641;-67
2024/01/02 11:31:55;;;;;;;9.80;5.60;;;;;;;6.79;85.75;99075.17;130194;1257;114747;-68
2024/01/02 11:35:05;;;;;;;9.20;3.10;;;;;;;6.80;85.65;99068.73;130339;1261;114937;-68
2024/01/02 11:38:09;;;;;;;13.90;5.10;;;;;;;6.82;85.11;99062.42;129887;1253;114799;-68
2024/01/02 11:42:19;;;;;;;8.40;3.20;;;;;;;6.86;85.32;99062.97;129975;1261;116261;-69
2024/01/02 11:45:24;;;;;;;8.70;4.30;;;;;;;6.87;84.86;99057.23;128956;1281;129691;-68
2024/01/02 11:48:51;;;;;;;9.60;4.60;;;;;;;6.88;84.66;99056.29;128917;1273;114817;-69
2024/01/02 11:51:56;;;;;;;6.60;3.30;;;;;;;6.88;84.46;99038.54;128847;1291;114821;-69
2024/01/02 11:55:12;;;;;;;11.20;4.60;;;;;;;6.87;84.80;99030.94;128813;1292;115345;-68
2024/01/02 11:58:25;;;;;;;8.00;3.40;;;;;;;6.89;84.80;99028.34;128803;1285;114775;-67
2024/01/02 12:01:45;;;;;;;11.20;5.70;;;;;;;6.91;84.84;99026.27;128874;1273;128992;-68
2024/01/02 12:04:53;;;;;;;12.00;3.70;;;;;;;6.97;85.20;99018.66;128882;1274;115156;-68
2024/01/02 12:07:55;;;;;;;8.60;3.90;;;;;;;7.05;85.40;99010.22;128747;1283;115379;-68
2024/01/02 12:11:04;;;;;;;10.30;4.00;;;;;;;7.09;84.79;98994.96;128839;1273;114938;-68
2024/01/02 12:14:30;;;;;;;8.70;3.10;;;;;;;7.11;84.87;98982.58;128851;1279;114933;-68
2024/01/02 12:17:57;;;;;;;7.50;2.80;;;;;;;7.13;85.16;98976.95;128810;1274;129129;-68
2024/01/02 12:21:04;;;;;;;9.90;4.30;;;;;;;7.15;85.24;98972.02;129720;1259;114835;-68
2024/01/02 12:24:07;;;;;;;5.70;2.60;;;;;;;7.18;84.71;98959.27;130044;1266;114862;-68
2024/01/02 12:27:10;;;;;;;6.40;2.50;;;;;;;7.19;84.61;98945.22;130308;1257;114691;-68
2024/01/02 12:30:22;;;;;;;8.60;2.50;;;;;;;7.17;84.31;98945.33;130251;1269;115141;-68
2024/01/02 12:33:30;;;;;;;6.60;2.50;;;;;;;7.15;84.57;98946.85;130288;1257;128778;-68
2024/01/02 12:36:48;;;;;;;6.40;2.30;;;;;;;7.11;84.22;98940.34;130174;1276;114725;-68
2024/01/02 12:39:52;;;;;;;7.10;2.70;;;;;;;7.04;84.43;98932.36;130006;1262;114821;-68
2024/01/02 12:42:58;;;;;;;8.30;4.20;;;;;;;6.96;84.56;98924.98;130000;1257;115064;-69
2024/01/02 12:46:14;;;;;;;7.20;3.40;;;;;;;6.93;84.98;98923.42;130257;1257;114679;-68
2024/01/02 12:49:28;;;;;;;8.40;2.50;;;;;;;6.87;84.73;98925.86;130042;1276;127900;-71
2024/01/02 12:52:37;;;;;;;7.10;2.80;;;;;;;6.79;84.49;98919.77;130273;1257;114834;-68
2024/01/02 12:55:49;;;;;;;6.90;3.60;;;;;;;6.72;84.78;98918.56;130388;1257;115319;-69
2024/01/02 12:58:52;;;;;;;9.20;3.80;;;;;;;6.67;84.88;98909.27;130336;1261;115130;-69
2024/01/02 13:01:56;;;;;;;8.40;2.70;;;;;;;6.64;85.15;98910.48;130263;1275;114699;-72
2024/01/02 13:04:58;;;;;;;7.30;2.30;;;;;;;6.62;84.93;98906.49;130109;1253;114706;-71
2024/01/02 13:08:00;;;;;;;10.20;3.60;;;;;;;6.59;85.10;98904.92;130159;1254;114950;-70
2024/01/02 13:11:02;;;;;;;8.60;2.40;;;;;;;6.56;85.15;98897.41;130265;1258;114683;-69
2024/01/02 13:14:04;;;;;;;7.10;2.30;;;;;;;6.53;84.99;98889.59;130176;1253;115228;-73
2024/01/02 13:17:06;;;;;;;7.30;2.80;;;;;;;6.49;84.87;98881.48;130303;1257;114755;-71
2024/01/02 13:20:10;;;;;;;5.70;2.50;;;;;;;6.47;84.82;98876.10;130283;1268;114740;-71
2024/01/02 13:23:12;;;;;;;5.00;1.70;;;;;;;6.42;84.79;98863.27;130335;1254;114701;-73
2024/01/02 13:26:14;;;;;;;7.00;2.70;;;;;;;6.37;84.82;98857.72;130287;1254;114705;-70
2024/01/02 13:29:18;;;;;;;5.10;1.80;;;;;;;6.33;84.73;98856.34;129995;1260;114829;-68
2024/01/02 13:32:21;;;;;;;6.00;1.90;;;;;;;6.30;85.03;98855.42;130129;1260;114809;-70
2024/01/02 13:35:23;;;;;;;6.10;2.40;;;;;;;6.26;84.92;98854.38;130271;1256;115428;-70
2024/01/02 13:38:25;;;;;;;5.30;2.10;;;;;;;6.24;84.94;98846.89;130295;1254;115260;-71
2024/01/02 13:41:28;;;;;;;4.50;2.10;;;;;;;6.21;85.21;98843.47;130360;1259;114741;-69
2024/01/02 13:44:34;;;;;;;6.20;2.30;;;;;;;6.20;85.18;98832.58;130021;1277;115520;-70
2024/01/02 13:47:36;;;;;;;4.00;1.40;;;;;;;6.18;85.22;98834.10;129964;1277;127953;-70
2024/01/02 13:50:39;;;;;;;4.60;1.60;;;;;;;6.17;85.43;98832.02;130156;1256;114869;-70
2024/01/02 13:54:00;;;;;;;4.40;2.50;;;;;;;6.16;85.42;98822.31;130305;1258;114733;-69
2024/01/02 13:57:02;;;;;;;9.20;3.90;;;;;;;6.15;85.58;98814.59;130241;1257;114811;-70
2024/01/02 14:00:12;;;;;;;17.80;7.50;;;;;;;6.13;85.60;98813.95;130253;1257;114820;-70
2024/01/02 14:03:18;;;;;;;45.80;18.90;;;;;;;6.13;85.74;98821.29;129925;1258;114897;-70
2024/01/02 14:06:22;;;;;;;24.60;12.20;;;;;;;6.13;85.92;98815.09;130232;1273;129263;-71
2024/01/02 14:09:25;;;;;;;28.00;12.20;;;;;;;6.10;85.95;98811.13;130100;1255;114866;-70
2024/01/02 14:12:38;;;;;;;11.20;5.80;;;;;;;6.10;86.10;98806.34;130274;1254;114696;-70
2024/01/02 14:15:40;;;;;;;10.10;4.70;;;;;;;6.07;86.01;98797.23;130342;1260;114867;-71
2024/01/02 14:18:43;;;;;;;7.80;4.40;;;;;;;6.06;86.07;98790.77;130260;1253;114709;-69
2024/01/02 14:21:46;;;;;;;8.40;4.50;;;;;;;6.02;85.98;98791.16;130264;1257;114698;-71